Time;durP1;ratioP1;P1;durP2;ratioP2;P2;SDS_P1;SDS_P2;PMS_P1;PMS_P2;Temp;Humidity;BMP_temperature;BMP_pressure;BME280_temperature;BME280_humidity;BME280_pressure;Samples;Min_cycle;Max_cycle;Signal;HPM_P1;HPM_P2
2022/07/04 00:00:32;;;;;;;2.50;1.80;;;21.40;99.90;;;-141.84;52.15;20397.16;5070085;28;20249;-60
2022/07/04 00:03:01;;;;;;;2.20;2.00;;;21.30;99.90;;;-141.84;52.28;20399.19;5070283;28;20307;-59
2022/07/04 00:05:29;;;;;;;2.47;2.10;;;21.20;99.90;;;-141.84;53.13;20354.47;5070036;28;20244;-58
2022/07/04 00:07:57;;;;;;;3.17;2.13;;;21.10;99.90;;;-141.84;53.01;20403.25;5070232;28;20221;-59
2022/07/04 00:10:25;;;;;;;3.95;1.95;;;21.00;99.90;;;-141.84;53.66;20330.09;5070257;28;20249;-59
2022/07/04 00:12:55;;;;;;;3.67;2.20;;;20.90;99.90;;;-141.84;53.94;20334.16;5070714;28;20212;-59
2022/07/04 00:15:23;;;;;;;3.13;2.33;;;20.90;99.90;;;-141.84;54.46;20311.78;5069768;28;20248;-60
2022/07/04 00:17:52;;;;;;;5.05;2.42;;;20.80;99.90;;;-141.84;54.65;20317.91;5069687;28;20327;-58
2022/07/04 00:20:20;;;;;;;2.47;2.28;;;20.80;99.90;;;-141.84;54.79;20309.75;5070018;28;20224;-58
2022/07/04 00:22:49;;;;;;;7.80;2.72;;;20.80;99.90;;;-141.84;55.14;20305.69;5070058;28;20217;-60
2022/07/04 00:25:17;;;;;;;2.50;2.30;;;20.70;99.90;;;-141.84;55.75;20260.97;5089583;28;20215;-59
2022/07/04 00:27:45;;;;;;;2.45;2.30;;;20.60;99.90;;;-141.84;56.28;20277.25;5090592;28;20219;-59
2022/07/04 00:30:15;;;;;;;3.25;2.30;;;20.50;99.90;;;-141.84;56.22;20269.13;5089920;28;20595;-60
2022/07/04 00:32:43;;;;;;;2.70;2.50;;;20.40;99.90;;;-141.84;56.76;20232.53;5073447;28;20239;-60
2022/07/04 00:35:11;;;;;;;3.42;2.17;;;20.40;99.90;;;-141.84;56.83;20218.31;5069681;28;20234;-59
2022/07/04 00:37:39;;;;;;;2.67;2.38;;;20.30;99.90;;;-141.84;57.46;20191.88;5069397;28;20232;-61
2022/07/04 00:40:09;;;;;;;3.78;2.60;;;20.40;99.90;;;-141.84;57.30;20216.25;5070135;28;20636;-60
2022/07/04 00:42:37;;;;;;;5.20;3.20;;;20.20;99.90;;;-141.84;58.22;20202.03;5070006;28;20224;-58
2022/07/04 00:45:07;;;;;;;4.60;3.20;;;20.20;99.90;;;-141.84;58.04;20216.25;5069620;28;20228;-59
2022/07/04 00:47:36;;;;;;;4.32;3.92;;;20.20;99.90;;;-141.84;58.79;20177.66;5068947;28;20715;-60
2022/07/04 00:50:05;;;;;;;4.32;3.45;;;20.10;99.90;;;-141.84;59.83;20159.34;5069446;28;20303;-60
2022/07/04 00:52:34;;;;;;;6.35;5.18;;;20.00;99.90;;;-141.84;59.98;20165.44;5069471;28;20234;-59
2022/07/04 00:55:02;;;;;;;7.45;5.47;;;20.00;99.90;;;-141.84;60.78;20104.47;5070346;28;20236;-59
2022/07/04 00:57:30;;;;;;;6.25;5.60;;;19.90;99.90;;;-141.84;60.77;20112.59;5069339;28;20247;-59
2022/07/04 00:59:58;;;;;;;8.02;5.38;;;19.90;99.90;;;-141.84;62.05;20090.25;5069419;28;20640;-59
2022/07/04 01:02:26;;;;;;;7.45;6.70;;;19.70;99.90;;;-141.84;62.51;20139.03;5073622;28;20230;-59
2022/07/04 01:04:56;;;;;;;7.40;6.38;;;19.60;99.90;;;-141.84;62.98;20065.84;5073541;28;20714;-59
2022/07/04 01:07:24;;;;;;;9.73;6.40;;;19.60;99.90;;;-141.84;63.73;20043.50;5073713;28;20206;-59
2022/07/04 01:09:54;;;;;;;6.53;5.90;;;19.60;99.90;;;-141.84;63.66;20063.81;5073865;28;20192;-59
2022/07/04 01:12:29;;;;;;;5.75;5.25;;;19.50;99.90;;;-141.84;64.01;20047.56;5073288;28;20231;-61
2022/07/04 01:14:57;;;;;;;6.05;5.40;;;19.50;99.90;;;-141.84;64.52;20027.25;5073260;28;20433;-59
2022/07/04 01:17:25;;;;;;;5.70;5.20;;;19.50;99.90;;;-141.84;65.71;19996.75;5073031;28;20704;-62
2022/07/04 01:19:54;;;;;;;8.77;4.93;;;19.40;99.90;;;-141.84;65.42;19986.59;5075835;28;20219;-58
2022/07/04 01:22:23;;;;;;;5.22;4.72;;;19.40;99.90;;;-141.84;65.68;20002.84;5072980;28;20197;-59
2022/07/04 01:24:51;;;;;;;5.65;5.03;;;19.40;99.90;;;-141.84;66.43;19984.56;5073478;28;20203;-59
2022/07/04 01:27:20;;;;;;;5.07;4.68;;;19.20;99.90;;;-141.84;67.33;19941.88;5073280;28;20907;-60
2022/07/04 01:29:48;;;;;;;5.22;4.80;;;19.20;99.90;;;-141.84;67.79;19921.56;5073783;28;20248;-57
2022/07/04 01:32:17;;;;;;;5.50;4.82;;;19.10;99.90;;;-141.84;67.00;19960.16;5073068;28;20227;-61
2022/07/04 01:34:45;;;;;;;5.20;4.70;;;19.10;99.90;;;-141.84;67.26;19964.25;5073062;28;20699;-60
2022/07/04 01:37:13;;;;;;;6.05;4.72;;;19.10;99.90;;;-141.84;68.20;19911.41;5073058;28;20220;-59
2022/07/04 01:39:44;;;;;;;6.13;4.75;;;19.00;99.90;;;-141.84;68.22;19931.72;5073616;28;20417;-59
2022/07/04 01:42:12;;;;;;;4.60;4.20;;;18.90;99.90;;;-141.84;69.00;19884.97;5072988;28;20311;-59
2022/07/04 01:44:40;;;;;;;6.00;4.35;;;18.90;99.90;;;-141.84;69.92;19880.91;5072809;28;20234;-60
2022/07/04 01:47:08;;;;;;;6.45;5.00;;;18.80;99.90;;;-141.84;68.83;19905.28;5072730;28;20236;-59
2022/07/04 01:49:36;;;;;;;5.90;4.53;;;18.80;99.90;;;-141.84;69.58;19856.53;5072527;28;20653;-59
2022/07/04 01:52:05;;;;;;;5.00;4.60;;;18.80;99.90;;;-141.84;69.43;19909.34;5073116;28;20469;-59
2022/07/04 01:54:33;;;;;;;4.30;3.95;;;18.70;99.90;;;-141.84;70.05;19860.59;5072437;28;20224;-60
2022/07/04 01:57:03;;;;;;;5.18;4.65;;;18.70;99.90;;;-141.84;69.58;19878.88;5072522;28;20579;-59
2022/07/04 02:02:17;;;;;;;4.95;4.43;;;18.70;99.90;;;-141.84;69.08;19895.13;5072565;28;20711;-59
2022/07/04 02:04:45;;;;;;;4.68;4.28;;;18.70;99.90;;;-141.84;70.01;19929.69;5072523;28;20224;-59
2022/07/04 02:07:14;;;;;;;5.65;4.30;;;18.60;99.90;;;-141.84;70.71;19846.34;5072537;28;20208;-58
2022/07/04 02:09:42;;;;;;;4.40;4.00;;;18.50;99.90;;;-141.84;71.36;19817.91;5072849;28;20324;-59
2022/07/04 02:14:57;;;;;;;4.40;4.00;;;18.40;99.90;;;-141.84;72.46;19795.53;5072120;28;20223;-59
2022/07/04 02:17:26;;;;;;;4.65;4.07;;;18.40;99.90;;;-141.84;72.76;19754.91;5088501;28;20381;-59
2022/07/04 02:19:54;;;;;;;4.47;3.85;;;18.30;99.90;;;-141.84;72.97;19746.78;5089192;28;20220;-61
2022/07/04 02:22:22;;;;;;;5.05;4.15;;;18.30;99.90;;;-141.84;72.75;19795.53;5072147;28;20312;-59
2022/07/04 02:24:50;;;;;;;4.90;3.80;;;18.20;99.90;;;-141.84;72.84;19781.31;5072631;28;20307;-58
2022/07/04 02:27:20;;;;;;;4.60;3.83;;;18.20;99.90;;;-141.84;73.22;19783.34;5071895;28;20220;-60
2022/07/04 02:29:48;;;;;;;5.90;4.15;;;18.20;99.90;;;-141.84;72.99;19765.06;5072050;28;20244;-59
2022/07/04 02:32:17;;;;;;;5.18;4.75;;;18.20;99.90;;;-141.84;73.34;19702.06;5071957;28;20404;-59
2022/07/04 02:34:45;;;;;;;5.03;4.57;;;18.20;99.90;;;-141.84;72.42;19773.19;5072002;28;20308;-59
2022/07/04 02:37:13;;;;;;;6.18;4.40;;;18.20;99.90;;;-141.84;73.27;19748.81;5071861;28;20303;-59
2022/07/04 02:39:41;;;;;;;5.57;4.65;;;18.20;99.90;;;-141.84;73.85;19714.25;5072008;28;20207;-59
2022/07/04 02:42:10;;;;;;;5.05;4.70;;;18.10;99.90;;;-141.84;74.11;19716.28;5071773;28;20239;-59
2022/07/04 02:44:41;;;;;;;6.20;4.38;;;18.10;99.90;;;-141.84;74.61;19712.22;5071505;28;20281;-59
2022/07/04 02:47:09;;;;;;;5.13;4.57;;;18.10;99.90;;;-141.84;75.08;19706.13;5071448;28;20228;-57
2022/07/04 02:49:37;;;;;;;4.78;4.38;;;18.00;99.90;;;-141.84;75.22;19734.56;5071666;28;20312;-59
2022/07/04 02:52:06;;;;;;;5.00;4.50;;;18.00;99.90;;;-141.84;75.02;19695.97;5071894;28;20743;-59
2022/07/04 02:54:35;;;;;;;5.07;4.57;;;17.90;99.90;;;-141.84;75.49;19714.25;5071183;28;20274;-59
2022/07/04 02:57:03;;;;;;;5.50;5.00;;;17.90;99.90;;;-141.84;75.71;19698.00;5071469;28;20217;-59
2022/07/04 02:59:31;;;;;;;5.38;4.82;;;17.90;99.90;;;-141.84;75.91;19718.31;5071096;28;20724;-59
2022/07/04 03:02:01;;;;;;;5.28;4.82;;;17.80;99.90;;;-141.84;75.65;19689.88;5071392;28;20300;-61
2022/07/04 03:04:29;;;;;;;5.10;4.70;;;17.90;99.90;;;-141.84;75.98;19683.78;5071017;28;20299;-60
2022/07/04 03:06:57;;;;;;;6.18;5.60;;;17.80;99.90;;;-141.84;75.71;19655.31;5071489;28;20664;-59
2022/07/04 03:09:27;;;;;;;5.50;5.00;;;17.80;99.90;;;-141.84;76.09;19663.44;5071209;28;20726;-59
2022/07/04 03:11:55;;;;;;;6.53;5.47;;;17.80;99.90;;;-141.84;75.76;19691.91;5072683;28;20806;-57
2022/07/04 03:14:23;;;;;;;5.90;5.40;;;17.80;99.90;;;-141.84;75.40;19683.78;5091348;28;20311;-59
2022/07/04 03:16:51;;;;;;;5.15;4.75;;;17.80;99.90;;;-141.84;76.09;19675.63;5091076;28;20223;-59
2022/07/04 03:19:21;;;;;;;5.13;4.72;;;17.80;99.90;;;-141.84;76.22;19679.72;5090969;28;20586;-59
2022/07/04 03:21:49;;;;;;;6.28;5.65;;;17.80;99.90;;;-141.84;75.16;19695.97;5071974;28;20707;-59
2022/07/04 03:24:17;;;;;;;5.50;4.88;;;17.80;99.90;;;-141.84;74.38;19689.88;5070726;28;20228;-58
2022/07/04 03:26:45;;;;;;;5.70;5.20;;;17.80;99.90;;;-141.84;74.42;19712.22;5070806;28;20663;-59
2022/07/04 03:29:13;;;;;;;5.65;5.00;;;17.80;99.90;;;-141.84;73.64;19718.31;5071102;28;20252;-60
2022/07/04 03:31:41;;;;;;;5.10;4.70;;;17.90;99.90;;;-141.84;74.48;19657.34;5070443;28;20239;-59
2022/07/04 03:34:09;;;;;;;5.63;4.85;;;17.90;99.90;;;-141.84;75.29;19651.25;5071202;28;20232;-59
2022/07/04 03:36:39;;;;;;;4.85;4.43;;;17.80;99.90;;;-141.84;74.94;19695.97;5070704;28;20710;-59
2022/07/04 03:39:07;;;;;;;4.55;4.20;;;17.80;99.90;;;-141.84;75.50;19671.56;5070479;28;20315;-59
2022/07/04 03:41:36;;;;;;;6.95;6.20;;;17.80;99.90;;;-141.84;74.30;19722.38;5070320;28;20235;-59
2022/07/04 03:44:04;;;;;;;6.15;5.55;;;17.80;99.90;;;-141.84;74.24;19700.03;5070780;28;20327;-59
2022/07/04 03:46:32;;;;;;;6.82;5.40;;;17.80;99.90;;;-141.84;74.27;19712.22;5070056;28;20721;-59
2022/07/04 03:49:00;;;;;;;6.57;5.07;;;17.90;99.90;;;-141.84;72.41;19761.00;5071011;28;20605;-58
2022/07/04 03:51:28;;;;;;;4.90;4.40;;;18.00;99.90;;;-141.84;71.44;19775.22;5069707;28;20461;-59
2022/07/04 03:53:58;;;;;;;4.45;4.13;;;18.10;99.90;;;-141.84;71.28;19787.41;5070350;28;20262;-58
2022/07/04 03:56:27;;;;;;;4.00;3.60;;;18.30;99.90;;;-141.84;70.37;19789.44;5070009;28;20720;-60
2022/07/04 03:58:55;;;;;;;3.80;3.50;;;18.40;99.90;;;-141.84;69.68;19801.66;5070322;28;20312;-59
2022/07/04 04:01:23;;;;;;;3.42;3.22;;;18.50;99.90;;;-141.84;69.42;19805.72;5070134;28;20207;-58
2022/07/04 04:06:37;;;;;;;3.65;3.22;;;18.50;99.90;;;-141.84;68.08;19819.94;5069993;28;20316;-59
2022/07/04 04:09:06;;;;;;;3.38;3.08;;;18.50;99.90;;;-141.84;68.59;19797.59;5079626;28;20311;-60
2022/07/04 04:11:37;;;;;;;3.10;2.90;;;18.50;99.90;;;-141.84;68.85;19836.19;5090042;28;20317;-59
2022/07/04 04:14:05;;;;;;;3.97;3.60;;;18.50;99.90;;;-141.84;68.67;19805.72;5090415;28;20306;-59
2022/07/04 04:16:34;;;;;;;3.28;3.08;;;18.40;99.90;;;-141.84;68.71;19797.59;5090349;28;20230;-60
2022/07/04 04:19:02;;;;;;;3.30;3.00;;;18.30;99.90;;;-141.84;69.94;19773.19;5090603;28;20224;-61
2022/07/04 04:21:30;;;;;;;3.35;3.05;;;18.30;99.90;;;-141.84;69.35;19826.03;5073088;28;20311;-60
2022/07/04 04:23:58;;;;;;;2.70;2.50;;;18.30;99.90;;;-141.84;69.91;19795.53;5069788;28;20286;-57
2022/07/04 04:26:28;;;;;;;2.83;2.63;;;18.30;99.90;;;-141.84;69.63;19819.94;5069905;28;20247;-59
2022/07/04 04:28:56;;;;;;;3.00;2.80;;;18.30;99.90;;;-141.84;68.64;19848.38;5070130;28;20260;-59
2022/07/04 04:31:25;;;;;;;4.38;2.85;;;18.30;99.90;;;-141.84;68.79;19838.22;5069211;28;20207;-59
2022/07/04 04:33:53;;;;;;;6.55;2.80;;;18.40;99.90;;;-141.84;68.45;19852.44;5070404;28;20228;-60
2022/07/04 04:36:21;;;;;;;5.57;3.20;;;18.50;99.90;;;-141.84;66.14;19903.25;5068737;28;20710;-57
2022/07/04 04:38:49;;;;;;;3.42;2.83;;;18.50;99.90;;;-141.84;65.47;19866.69;5069547;28;20235;-58
2022/07/04 04:41:17;;;;;;;2.90;2.70;;;18.60;99.90;;;-141.84;65.18;19897.16;5069552;28;20255;-60
2022/07/04 04:43:47;;;;;;;2.70;2.50;;;18.60;99.90;;;-141.84;65.82;19913.44;5069570;28;20304;-60
2022/07/04 04:46:20;;;;;;;3.17;2.63;;;18.70;99.90;;;-141.84;64.83;19923.59;5069213;28;20190;-59
2022/07/04 04:48:48;;;;;;;2.50;2.30;;;18.80;99.90;;;-141.84;64.21;19952.03;5070192;28;20299;-60
2022/07/04 04:51:16;;;;;;;2.70;2.50;;;19.00;99.90;;;-141.84;62.06;19994.72;5069194;28;20231;-60
2022/07/04 04:53:45;;;;;;;3.78;2.40;;;19.20;99.90;;;-141.84;60.51;20082.13;5069609;28;20746;-59
2022/07/04 04:56:13;;;;;;;3.60;2.13;;;19.50;99.90;;;-141.84;56.11;20358.56;5069393;28;20782;-59
2022/07/04 04:58:41;;;;;;;2.95;2.10;;;20.40;99.90;;;-141.84;50.02;20724.44;5069258;28;20232;-60
2022/07/04 05:01:10;;;;;;;4.35;2.10;;;21.80;99.90;;;-141.84;44.07;21068.00;5069549;28;20652;-60
2022/07/04 05:03:58;;;;;;;2.08;1.85;;;22.90;99.90;;;-141.84;42.78;21122.91;5069266;28;20237;-59
2022/07/04 05:06:27;;;;;;;2.40;1.70;;;23.40;99.90;;;-141.84;41.50;21216.41;5087806;28;20242;-59
2022/07/04 05:08:55;;;;;;;3.70;2.03;;;24.00;99.90;;;-141.84;40.01;21407.53;5089560;28;20732;-59
2022/07/04 05:11:23;;;;;;;1.98;1.48;;;24.70;99.90;;;-141.84;37.11;21747.09;5089630;28;20253;-60
2022/07/04 05:13:51;;;;;;;1.45;1.35;;;25.80;99.90;;;-141.84;36.24;21891.47;5089151;28;20305;-58
2022/07/04 05:16:21;;;;;;;1.50;1.40;;;26.50;99.90;;;-141.84;34.88;22011.44;5089127;28;20203;-59
2022/07/04 05:18:49;;;;;;;1.38;1.15;;;26.70;99.90;;;-141.84;34.68;22143.63;5089962;28;20228;-59
2022/07/04 05:21:17;;;;;;;3.38;1.45;;;27.40;99.90;;;-141.84;33.21;22227.00;5074633;28;20221;-59
2022/07/04 05:23:45;;;;;;;3.45;1.40;;;27.40;99.90;;;-141.84;33.28;22259.53;5069708;28;20307;-60
2022/07/04 05:26:13;;;;;;;1.67;1.40;;;27.90;99.90;;;-141.84;33.04;22340.88;5070065;28;20255;-59
2022/07/04 05:28:41;;;;;;;2.88;1.50;;;27.80;99.90;;;-141.84;32.85;22353.09;5069654;28;20304;-59
2022/07/04 05:31:09;;;;;;;4.10;1.50;;;27.70;99.90;;;-141.84;32.00;22418.16;5070358;28;20517;-60
2022/07/04 05:33:39;;;;;;;2.90;1.48;;;27.80;99.90;;;-141.84;32.87;22298.16;5070183;28;20295;-59
2022/07/04 05:36:08;;;;;;;5.95;1.90;;;27.50;99.90;;;-141.84;33.19;22227.00;5069621;28;20234;-58
2022/07/04 05:38:36;;;;;;;1.63;1.23;;;27.20;99.90;;;-141.84;33.21;22151.75;5069483;28;20259;-60
2022/07/04 05:41:04;;;;;;;2.97;1.70;;;27.30;99.90;;;-141.84;34.67;22009.41;5069739;28;20235;-60
2022/07/04 05:43:32;;;;;;;1.85;1.60;;;26.70;99.90;;;-141.84;35.41;21797.94;5069551;28;20561;-59
2022/07/04 05:46:00;;;;;;;2.40;1.40;;;26.30;99.90;;;-141.84;37.91;21456.34;5070242;28;20219;-59
2022/07/04 05:48:28;;;;;;;4.90;1.77;;;25.50;99.90;;;-141.84;40.27;21232.69;5073391;28;20232;-58
2022/07/04 05:50:58;;;;;;;1.77;1.60;;;24.80;99.90;;;-141.84;42.27;21029.38;5073279;28;20308;-59
2022/07/04 05:53:26;;;;;;;1.90;1.63;;;24.20;99.90;;;-141.84;43.83;20903.34;5073203;28;20654;-60
2022/07/04 05:55:54;;;;;;;2.03;1.70;;;23.70;99.90;;;-141.84;45.00;20864.72;5073477;28;20234;-60
2022/07/04 05:58:22;;;;;;;2.45;1.90;;;23.20;99.90;;;-141.84;45.68;20738.66;5073144;28;20203;-59
2022/07/04 06:00:51;;;;;;;2.40;1.73;;;22.90;99.90;;;-141.84;47.02;20691.91;5076882;28;20676;-59
2022/07/04 06:03:19;;;;;;;3.25;1.95;;;22.80;99.90;;;-141.84;46.76;20720.38;5093392;28;20222;-60
2022/07/04 06:05:52;;;;;;;2.15;1.90;;;22.80;99.90;;;-141.84;46.45;20712.25;5093524;28;20250;-59
2022/07/04 06:08:22;;;;;;;2.58;1.67;;;22.70;99.90;;;-141.84;46.87;20679.72;5093410;28;20311;-59
2022/07/04 06:10:51;;;;;;;2.80;1.50;;;22.50;99.90;;;-141.84;47.52;20689.88;5093303;28;20673;-59
2022/07/04 06:13:19;;;;;;;2.83;1.65;;;22.60;99.90;;;-141.84;47.16;20716.31;5092948;28;20254;-59
2022/07/04 06:15:47;;;;;;;2.13;1.60;;;22.80;99.90;;;-141.84;46.41;20750.88;5093732;28;20560;-59
2022/07/04 06:18:15;;;;;;;1.45;1.35;;;22.80;99.90;;;-141.84;46.57;20716.31;5093074;28;20662;-59
2022/07/04 06:20:44;;;;;;;3.03;1.67;;;22.80;99.90;;;-141.84;46.76;20752.91;5082689;28;20235;-58
2022/07/04 06:23:12;;;;;;;3.72;1.52;;;22.90;99.90;;;-141.84;46.73;20736.63;5072856;28;20255;-59
2022/07/04 06:25:41;;;;;;;3.22;1.77;;;22.90;99.90;;;-141.84;45.69;20769.16;5072932;28;20230;-59
2022/07/04 06:28:10;;;;;;;2.78;1.40;;;23.10;99.90;;;-141.84;45.69;20767.13;5073217;28;20667;-59
2022/07/04 06:30:58;;;;;;;2.05;1.52;;;23.10;99.90;;;-141.84;45.05;20785.44;5072816;28;20221;-59
2022/07/04 06:33:26;;;;;;;1.58;1.40;;;22.90;99.90;;;-141.84;46.17;20765.09;5055111;28;20225;-59
2022/07/04 06:35:54;;;;;;;1.50;1.35;;;23.00;99.90;;;-141.84;44.54;20838.28;5052506;28;20768;-59
2022/07/04 06:38:26;;;;;;;1.60;1.27;;;23.10;99.90;;;-141.84;44.97;20791.53;5052651;28;20229;-58
2022/07/04 06:40:59;;;;;;;1.83;1.30;;;23.00;99.90;;;-141.84;45.17;20754.94;5052761;28;20245;-61
2022/07/04 06:43:27;;;;;;;1.95;1.08;;;22.90;99.90;;;-141.84;46.15;20671.59;5052749;28;20281;-60
2022/07/04 06:45:55;;;;;;;1.08;0.95;;;22.50;99.90;;;-141.84;45.24;20639.06;5056943;28;20701;-58
2022/07/04 06:48:24;;;;;;;1.20;1.10;;;22.20;99.90;;;-141.84;44.50;20720.38;5072352;28;20231;-58
2022/07/04 06:50:52;;;;;;;1.60;1.10;;;22.10;99.90;;;-141.84;44.95;20685.81;5072398;28;20217;-59
2022/07/04 06:53:20;;;;;;;1.30;1.10;;;22.10;99.90;;;-141.84;44.76;20710.22;5072340;28;20303;-60
2022/07/04 06:55:48;;;;;;;2.38;1.05;;;22.30;99.90;;;-141.84;44.41;20726.47;5072633;28;20227;-59
2022/07/04 06:58:18;;;;;;;2.28;1.13;;;22.30;99.90;;;-141.84;44.07;20712.25;5085238;28;20200;-59
2022/07/04 07:00:46;;;;;;;1.08;0.90;;;22.20;99.90;;;-141.84;44.48;20687.84;5092994;28;20255;-59
2022/07/04 07:03:15;;;;;;;2.90;1.00;;;22.20;99.90;;;-141.84;44.53;20685.81;5092469;28;20281;-59
2022/07/04 07:05:43;;;;;;;2.28;1.10;;;22.20;99.90;;;-141.84;44.06;20695.97;5092413;28;20232;-60
2022/07/04 07:08:29;;;;;;;1.25;1.05;;;22.10;99.90;;;-141.84;44.11;20734.59;5092342;28;20298;-60
2022/07/04 07:11:12;;;;;;;0.95;0.95;;;22.20;99.90;;;-141.84;44.48;20740.69;5092486;28;20767;-59
2022/07/04 07:13:43;;;;;;;1.23;1.05;;;22.30;99.90;;;-141.84;42.97;20789.50;5092142;28;20227;-60
2022/07/04 07:16:13;;;;;;;3.38;1.17;;;22.60;99.90;;;-141.84;43.01;20805.75;5092167;28;20193;-59
2022/07/04 07:18:41;;;;;;;3.88;1.25;;;22.70;99.90;;;-141.84;43.31;20793.56;5092439;28;20616;-59
2022/07/04 07:21:09;;;;;;;2.60;1.05;;;22.70;99.90;;;-141.84;42.70;20781.38;5078296;28;20327;-60
2022/07/04 07:23:40;;;;;;;3.13;1.00;;;22.70;99.90;;;-141.84;43.42;20811.84;5071697;28;20719;-59
2022/07/04 07:26:10;;;;;;;1.17;1.08;;;22.80;99.90;;;-141.84;43.02;20824.06;5069825;28;20579;-57
2022/07/04 07:28:38;;;;;;;1.38;1.17;;;22.80;99.90;;;-141.84;41.77;20878.94;5071481;28;20229;-58
2022/07/04 07:31:08;;;;;;;2.17;1.00;;;22.90;99.90;;;-141.84;41.66;20850.47;5071920;28;20283;-58
2022/07/04 07:33:36;;;;;;;1.38;1.05;;;23.00;99.90;;;-141.84;41.82;20872.84;5071477;28;20262;-56
2022/07/04 07:36:05;;;;;;;2.25;1.00;;;23.00;99.90;;;-141.84;41.05;20958.22;5071125;28;20307;-57
2022/07/04 07:38:34;;;;;;;2.63;1.38;;;23.10;99.90;;;-141.84;41.35;20996.84;5071137;28;20224;-54
2022/07/04 07:41:03;;;;;;;1.88;1.13;;;23.30;99.90;;;-141.84;40.60;21061.91;5071214;28;20661;-57
2022/07/04 07:43:31;;;;;;;1.67;1.17;;;23.50;99.90;;;-141.84;40.31;21118.84;5071258;28;20315;-60
2022/07/04 07:45:59;;;;;;;2.17;1.10;;;23.90;99.90;;;-141.84;38.65;21214.38;5071354;28;20292;-59
2022/07/04 07:48:29;;;;;;;2.05;1.25;;;24.10;99.90;;;-141.84;38.92;21198.13;5071058;28;20232;-59
2022/07/04 07:50:57;;;;;;;2.17;1.30;;;24.20;99.90;;;-141.84;37.62;21344.50;5070766;28;20227;-60
2022/07/04 07:53:25;;;;;;;2.25;1.10;;;24.40;99.90;;;-141.84;37.71;21307.91;5074742;28;20247;-59
2022/07/04 07:55:53;;;;;;;2.22;1.35;;;24.40;99.90;;;-141.84;37.57;21344.50;5091116;28;20238;-58
2022/07/04 07:58:21;;;;;;;4.93;1.48;;;24.50;99.90;;;-141.84;37.78;21299.78;5091063;28;20585;-60
2022/07/04 08:00:50;;;;;;;2.75;1.30;;;24.60;99.90;;;-141.84;37.42;21326.22;5091258;28;20315;-59
2022/07/04 08:06:11;;;;;;;2.45;1.15;;;24.90;99.90;;;-141.84;37.96;21326.22;5070692;28;20734;-59
2022/07/04 08:08:40;;;;;;;2.63;1.40;;;24.80;99.90;;;-141.84;37.40;21387.19;5070820;28;20247;-60
2022/07/04 08:11:09;;;;;;;2.25;1.38;;;24.70;99.90;;;-141.84;37.88;21255.03;5069753;28;20311;-61
2022/07/04 08:13:37;;;;;;;2.35;1.38;;;24.60;99.90;;;-141.84;38.32;21281.47;5070237;28;20255;-59
2022/07/04 08:16:07;;;;;;;4.90;1.30;;;24.60;99.90;;;-141.84;38.04;21220.47;5070533;28;20284;-59
2022/07/04 08:18:36;;;;;;;3.42;1.40;;;24.50;99.90;;;-141.84;38.04;21238.78;5070435;28;20264;-59
2022/07/04 08:21:05;;;;;;;2.58;1.33;;;24.40;99.90;;;-141.84;37.75;21273.34;5070332;28;20312;-59
2022/07/04 08:23:42;;;;;;;1.42;1.20;;;24.40;99.90;;;-141.84;38.07;21275.38;5070698;28;20630;-61
2022/07/04 08:26:30;;;;;;;2.08;1.30;;;24.30;99.90;;;-141.84;37.43;21289.59;5070474;28;20232;-59
2022/07/04 08:28:59;;;;;;;1.80;1.27;;;24.40;99.90;;;-141.84;37.73;21307.91;5070536;28;20225;-60
2022/07/04 08:31:28;;;;;;;2.92;1.48;;;24.40;99.90;;;-141.84;37.50;21318.06;5070504;28;20211;-59
2022/07/04 08:34:16;;;;;;;2.80;1.10;;;24.40;99.90;;;-141.84;37.43;21324.19;5070490;28;20188;-59
2022/07/04 08:36:45;;;;;;;2.10;1.20;;;24.60;99.90;;;-141.84;37.66;21314.00;5069019;28;20253;-56
2022/07/04 08:39:14;;;;;;;2.88;1.20;;;24.70;99.90;;;-141.84;37.49;21415.66;5059159;28;20229;-58
2022/07/04 08:41:43;;;;;;;3.05;1.45;;;25.00;99.90;;;-141.84;36.37;21533.59;5061382;28;20323;-59
2022/07/04 08:44:12;;;;;;;2.70;1.38;;;25.30;99.90;;;-141.84;36.57;21499.03;5070232;28;20311;-59
2022/07/04 08:46:43;;;;;;;2.00;1.30;;;25.50;99.90;;;-141.84;36.97;21454.28;5068056;28;20220;-61
2022/07/04 08:49:18;;;;;;;2.40;1.40;;;25.40;99.90;;;-141.84;35.91;21454.28;5070437;28;20641;-56
2022/07/04 08:51:55;;;;;;;1.45;1.10;;;25.40;99.90;;;-141.84;36.71;21346.53;5070674;28;20192;-60
2022/07/04 08:59:55;;;;;;;1.27;1.10;;;24.90;99.90;;;-141.84;37.63;21346.53;5069364;28;20208;-60
2022/07/04 09:02:24;;;;;;;1.92;1.13;;;24.90;99.90;;;-141.84;36.58;21389.22;5069748;28;20298;-59
2022/07/04 09:04:52;;;;;;;1.27;1.17;;;25.00;99.90;;;-141.84;36.39;21385.16;5070049;28;20255;-59
2022/07/04 09:07:21;;;;;;;1.25;1.10;;;24.80;99.90;;;-141.84;36.06;21433.97;5069659;28;20227;-59
2022/07/04 09:09:52;;;;;;;3.28;1.10;;;24.90;99.90;;;-141.84;35.82;21476.66;5070400;28;20659;-59
2022/07/04 09:12:21;;;;;;;1.10;1.00;;;24.80;99.90;;;-141.84;35.69;21476.66;5069719;28;20274;-58
2022/07/04 09:14:51;;;;;;;0.90;0.90;;;24.70;99.90;;;-141.84;35.77;21350.59;5070020;28;20299;-61
2022/07/04 09:17:20;;;;;;;3.30;1.20;;;24.60;99.90;;;-141.84;35.92;21383.13;5068606;28;20255;-60
2022/07/04 09:20:15;;;;;;;1.67;1.13;;;24.50;99.90;;;-141.84;36.15;21354.66;5069302;28;20246;-59
2022/07/04 09:22:44;;;;;;;3.85;1.50;;;24.60;99.90;;;-141.84;36.56;21281.47;5072392;28;20230;-58
2022/07/04 09:25:15;;;;;;;3.85;1.25;;;24.40;99.90;;;-141.84;36.47;21303.84;5073729;28;20234;-59
2022/07/04 09:27:47;;;;;;;1.55;1.00;;;24.20;99.90;;;-141.84;36.56;21375.00;5074221;28;20189;-59
2022/07/04 09:30:18;;;;;;;2.47;1.10;;;24.40;99.90;;;-141.84;35.52;21442.09;5073717;28;20224;-58
2022/07/04 09:32:50;;;;;;;3.25;1.20;;;24.70;99.90;;;-141.84;34.35;21545.78;5073386;28;20299;-59
2022/07/04 09:35:21;;;;;;;2.35;1.10;;;24.80;99.90;;;-141.84;35.45;21407.53;5073440;28;20216;-58
2022/07/04 09:37:52;;;;;;;1.35;0.90;;;24.80;99.90;;;-141.84;36.37;21366.88;5073589;28;20239;-60
2022/07/04 09:40:28;;;;;;;3.17;1.10;;;24.80;99.90;;;-141.84;34.54;21393.31;5074822;28;20209;-59
2022/07/04 09:42:59;;;;;;;2.33;1.10;;;24.50;99.90;;;-141.84;34.88;21322.13;5073991;28;20240;-61
2022/07/04 09:45:29;;;;;;;3.60;1.00;;;24.10;99.90;;;-141.84;36.19;21248.94;5048934;28;20228;-60
2022/07/04 09:47:59;;;;;;;2.65;0.90;;;23.90;99.90;;;-141.84;35.41;21226.59;5059673;28;20628;-59
2022/07/04 09:50:29;;;;;;;1.20;0.80;;;23.80;99.90;;;-141.84;36.22;21124.94;5046458;28;20695;-60
2022/07/04 09:52:59;;;;;;;1.30;0.95;;;23.50;99.90;;;-141.84;36.79;21082.25;5052508;28;20783;-59
2022/07/04 09:55:31;;;;;;;1.40;0.90;;;23.40;99.90;;;-141.84;37.04;21051.75;5053173;28;20225;-60
2022/07/04 09:58:02;;;;;;;1.55;0.90;;;23.20;99.90;;;-141.84;37.58;21011.09;5062636;28;20799;-59
2022/07/04 10:00:33;;;;;;;2.05;0.80;;;23.10;99.90;;;-141.84;37.93;21029.38;5073430;28;20272;-59
2022/07/04 10:03:20;;;;;;;1.30;1.00;;;23.20;99.90;;;-141.84;37.01;21059.88;5048778;28;20229;-59
2022/07/04 10:06:03;;;;;;;1.10;1.00;;;23.30;99.90;;;-141.84;37.26;21088.34;5056114;28;20208;-59
2022/07/04 10:08:32;;;;;;;1.45;0.82;;;23.20;99.90;;;-141.84;37.40;21078.16;5064813;28;20211;-61
2022/07/04 10:11:04;;;;;;;1.73;0.95;;;23.40;99.90;;;-141.84;37.13;21104.59;5041216;28;20677;-60
2022/07/04 10:13:37;;;;;;;1.00;1.00;;;23.30;99.90;;;-141.84;37.46;21102.56;5057388;28;20209;-60
2022/07/04 10:16:07;;;;;;;2.00;1.10;;;23.40;99.90;;;-141.84;38.36;21068.00;5061007;28;20247;-60
2022/07/04 10:18:36;;;;;;;2.47;1.08;;;23.50;99.90;;;-141.84;38.22;21090.38;5072491;28;20259;-59
2022/07/04 10:21:04;;;;;;;2.33;1.25;;;23.70;99.90;;;-141.84;38.04;21171.69;5054609;28;20233;-61
2022/07/04 10:23:41;;;;;;;1.40;1.30;;;23.90;99.90;;;-141.84;37.61;21173.72;5029758;28;20233;-58
2022/07/04 10:26:12;;;;;;;1.45;1.13;;;23.90;99.90;;;-141.84;37.72;21139.16;5029666;28;20223;-61
2022/07/04 10:28:47;;;;;;;2.17;1.20;;;23.90;99.90;;;-141.84;38.23;21108.66;5061700;28;20201;-59
2022/07/04 10:31:18;;;;;;;1.80;1.15;;;23.90;99.90;;;-141.84;38.38;21192.03;5059538;28;20270;-59